Terminal Aerodrome Forecast
Issued by NWS Binghamton, NY

Current Version | Previous Version | Text Only | Print | Product List | Glossary On
Versions: 1 2 3 4 5 6 7 8 9 10 11 12
834
FTUS41 KBGM 220525
TAFBGM
TAF
KBGM 220525Z 2206/2306 17005KT P6SM FEW250
     FM221800 18009KT P6SM SCT250=

USA.gov is the U.S. government's official web portal to all federal, state and local government web resources and services.